Seybold, Florida
Current Conditions -  °F | °C
As of 3:53 PM on Thursday 18 Dec 2014 (Local Time) from KMIA Reporting Station
Few Clouds Few Clouds  
Wind Chill: 78°   Ceiling: Unl
Heat Index: 79°   Visibility: 10mi
Dew Point: 57°   Wind: 6mph
Humidity: 48%   Direction: 290°WNW
Pressure: 30.07"   Gusts: NA
Location:  25.7849°N, 80.1896°W
Report Text: KMIA 182053Z 29005KT 10SM FEW045 FEW250 26/14 A3007 RMK AO2 SLP183 T02560139 56016
Loading
Personal Weather Stations






























Interactive Weather Map New forecast layout! Learn more

10-Day Weather Forecast

Advertisements
Track Severe Weather on mobile